createdAt,value
2017-09-05T00:02:02.990Z,16.5
2017-09-05T00:07:03.308Z,16.6
2017-09-05T00:12:03.163Z,16.6
2017-09-05T00:17:03.107Z,16.7
2017-09-05T00:22:02.916Z,16.6
2017-09-05T00:27:03.564Z,16.6
2017-09-05T00:32:03.251Z,16.6
2017-09-05T00:37:03.224Z,16.5
2017-09-05T00:42:02.896Z,16.4
2017-09-05T00:47:03.602Z,16.4
2017-09-05T00:52:03.233Z,16.4
2017-09-05T00:57:02.968Z,16.4
2017-09-05T01:02:03.653Z,16.3
2017-09-05T01:07:02.831Z,16.1
2017-09-05T01:12:03.533Z,16.0
2017-09-05T01:17:03.315Z,16.0
2017-09-05T01:22:02.674Z,15.9
2017-09-05T01:27:03.462Z,15.9
2017-09-05T01:32:03.091Z,16.0
2017-09-05T01:37:03.170Z,16.0
2017-09-05T01:42:02.951Z,16.0
2017-09-05T01:47:03.723Z,16.1
2017-09-05T01:52:03.425Z,16.0
2017-09-05T01:57:03.162Z,16.0
2017-09-05T02:02:03.005Z,16.0
2017-09-05T02:07:02.889Z,15.9
2017-09-05T02:12:03.603Z,15.9
2017-09-05T02:17:03.372Z,15.9
2017-09-05T02:22:03.379Z,15.8
2017-09-05T02:27:02.994Z,15.9
2017-09-05T02:32:03.635Z,16.0
2017-09-05T02:37:03.251Z,15.9
2017-09-05T02:42:03.537Z,16.0
2017-09-05T02:47:03.003Z,16.1
2017-09-05T02:52:03.258Z,16.0
2017-09-05T02:57:03.529Z,15.9
2017-09-05T03:02:02.915Z,15.9
2017-09-05T03:07:03.289Z,15.9
2017-09-05T03:12:02.882Z,15.9
2017-09-05T03:17:03.218Z,16.1
2017-09-05T03:22:03.526Z,16.1
2017-09-05T03:27:02.906Z,16.1
2017-09-05T03:32:03.194Z,16.1
2017-09-05T03:37:03.527Z,16.0
2017-09-05T03:42:02.818Z,15.9
2017-09-05T03:47:03.147Z,15.8
2017-09-05T03:52:03.491Z,15.7
2017-09-05T03:57:02.858Z,15.5
2017-09-05T04:02:03.184Z,15.5
2017-09-05T04:07:03.572Z,15.4
2017-09-05T04:12:03.086Z,15.4
2017-09-05T04:17:05.078Z,15.5
2017-09-05T04:22:02.920Z,15.5
2017-09-05T04:27:03.436Z,15.3
2017-09-05T04:32:16.591Z,15.3
2017-09-05T04:37:03.324Z,15.2
2017-09-05T04:42:02.851Z,15.3
2017-09-05T04:47:13.401Z,15.4
2017-09-05T04:52:02.834Z,15.4
2017-09-05T04:57:03.430Z,15.5
2017-09-05T05:02:22.723Z,15.4
2017-09-05T05:07:03.537Z,15.4
2017-09-05T05:12:03.100Z,15.3
2017-09-05T05:17:17.748Z,15.3
2017-09-05T05:22:03.322Z,15.2
2017-09-05T05:27:02.802Z,15.3
2017-09-05T05:32:17.392Z,15.3
2017-09-05T05:37:03.152Z,15.3
2017-09-05T05:42:03.147Z,15.4
2017-09-05T05:47:17.184Z,15.4
2017-09-05T05:52:03.213Z,15.5
2017-09-05T05:57:03.564Z,15.5
2017-09-05T06:02:17.536Z,15.8
2017-09-05T06:07:02.988Z,15.7
2017-09-05T06:12:03.494Z,16.1
2017-09-05T06:17:13.457Z,16.1
2017-09-05T06:22:02.893Z,16.3
2017-09-05T06:27:03.413Z,16.4
2017-09-05T06:32:17.220Z,16.7
2017-09-05T06:37:02.737Z,17.0
2017-09-05T06:42:03.261Z,17.2
2017-09-05T06:47:14.119Z,17.4
2017-09-05T06:52:03.230Z,17.6
2017-09-05T06:57:03.154Z,17.6
2017-09-05T07:02:13.886Z,17.8
2017-09-05T07:07:03.116Z,17.8
2017-09-05T07:12:03.010Z,18.4
2017-09-05T07:17:11.682Z,18.5
2017-09-05T07:22:03.342Z,18.5
2017-09-05T07:27:02.783Z,18.8
2017-09-05T07:32:22.857Z,19.2
2017-09-05T07:37:03.450Z,19.1
2017-09-05T07:42:02.851Z,19.5
2017-09-05T07:47:17.866Z,19.7
2017-09-05T07:52:03.454Z,19.9
2017-09-05T07:57:02.901Z,20.0
2017-09-05T08:02:13.577Z,20.2
2017-09-05T08:07:03.237Z,20.1
2017-09-05T08:12:02.999Z,20.1
2017-09-05T08:17:17.528Z,20.3
2017-09-05T08:22:03.049Z,20.2
2017-09-05T08:27:03.457Z,20.3
2017-09-05T08:32:16.928Z,20.9
2017-09-05T08:37:02.872Z,21.2
2017-09-05T08:42:03.399Z,22.2
2017-09-05T08:47:13.512Z,22.2
2017-09-05T08:52:03.155Z,22.5
2017-09-05T08:57:03.612Z,23.2
2017-09-05T09:02:16.803Z,23.7
2017-09-05T09:07:03.175Z,24.0
2017-09-05T09:12:02.864Z,24.0
2017-09-05T09:17:13.852Z,24.6
2017-09-05T09:22:03.107Z,24.6
2017-09-05T09:27:03.615Z,25.0
2017-09-05T09:32:15.597Z,24.9
2017-09-05T09:37:03.442Z,25.3
2017-09-05T09:42:03.489Z,25.6
2017-09-05T09:47:17.058Z,26.2
2017-09-05T09:52:03.334Z,26.1
2017-09-05T09:57:03.037Z,27.1
2017-09-05T10:02:16.341Z,27.6
2017-09-05T10:07:03.520Z,28.0
2017-09-05T10:12:03.652Z,28.0
2017-09-05T10:17:13.355Z,28.7
2017-09-05T10:22:02.898Z,29.5
2017-09-05T10:27:03.471Z,29.1
2017-09-05T10:32:13.006Z,29.1
2017-09-05T10:37:03.018Z,28.6
2017-09-05T10:42:03.416Z,28.1
2017-09-05T10:47:16.884Z,28.1
2017-09-05T10:52:02.670Z,28.5
2017-09-05T10:57:03.171Z,28.3
2017-09-05T11:02:12.818Z,28.5
2017-09-05T11:07:02.855Z,28.7
2017-09-05T11:12:03.392Z,28.3
2017-09-05T11:17:13.375Z,28.3
2017-09-05T11:22:02.927Z,28.0
2017-09-05T11:27:03.396Z,27.9
2017-09-05T11:32:17.095Z,28.0
2017-09-05T11:37:03.095Z,28.0
2017-09-05T11:42:03.422Z,28.0
2017-09-05T11:47:13.139Z,28.1
2017-09-05T11:52:02.703Z,28.1
2017-09-05T11:57:03.299Z,28.9
2017-09-05T12:02:13.057Z,29.6
2017-09-05T12:07:02.775Z,29.8
2017-09-05T12:12:03.418Z,29.8
2017-09-05T12:17:13.516Z,29.5
2017-09-05T12:22:03.430Z,29.1
2017-09-05T12:27:03.388Z,29.5
2017-09-05T12:32:16.372Z,30.6
2017-09-05T12:37:03.554Z,31.0
2017-09-05T12:42:03.184Z,31.0
2017-09-05T12:47:17.360Z,31.2
2017-09-05T12:52:03.346Z,31.2
2017-09-05T12:57:02.889Z,31.4
2017-09-05T13:02:13.695Z,31.8
2017-09-05T13:07:02.849Z,31.4
2017-09-05T13:12:03.431Z,31.5
2017-09-05T13:17:17.308Z,31.5
2017-09-05T13:22:03.140Z,31.3
2017-09-05T13:27:03.536Z,31.2
2017-09-05T13:32:13.421Z,31.1
2017-09-05T13:37:02.674Z,30.6
2017-09-05T13:42:03.174Z,30.4
2017-09-05T13:47:23.334Z,30.4
2017-09-05T13:52:02.632Z,30.4
2017-09-05T13:57:02.801Z,30.5
2017-09-05T14:02:13.358Z,31.2
2017-09-05T14:07:02.951Z,31.1
2017-09-05T14:12:03.575Z,32.3
2017-09-05T14:17:13.647Z,32.9
2017-09-05T14:22:02.914Z,32.6
2017-09-05T14:27:03.486Z,32.6
2017-09-05T14:32:13.054Z,32.9
2017-09-05T14:37:03.256Z,34.9
2017-09-05T14:42:02.732Z,35.2
2017-09-05T14:47:17.822Z,34.1
2017-09-05T14:52:03.372Z,34.7
2017-09-05T14:57:02.875Z,34.7
2017-09-05T15:02:13.606Z,32.9
2017-09-05T15:07:02.779Z,32.9
2017-09-05T15:12:03.425Z,32.0
2017-09-05T15:17:13.600Z,32.0
2017-09-05T15:22:02.962Z,30.4
2017-09-05T15:27:03.495Z,30.3
2017-09-05T15:32:13.498Z,29.9
2017-09-05T15:37:02.996Z,34.7
2017-09-05T15:42:03.390Z,34.8
2017-09-05T15:47:13.428Z,32.3
2017-09-05T15:52:03.018Z,30.6
2017-09-05T15:57:03.372Z,31.0
2017-09-05T16:02:13.319Z,30.4
2017-09-05T16:07:03.414Z,30.4
2017-09-05T16:12:02.874Z,32.0
2017-09-05T16:17:14.001Z,37.4
2017-09-05T16:22:02.828Z,36.6
2017-09-05T16:27:03.333Z,36.6
2017-09-05T16:32:14.213Z,31.9
2017-09-05T16:37:03.088Z,31.8
2017-09-05T16:42:03.479Z,28.9
2017-09-05T16:47:13.157Z,28.9
2017-09-05T16:52:03.360Z,27.3
2017-09-05T16:57:02.892Z,27.2
2017-09-05T17:02:13.779Z,28.4
2017-09-05T17:07:02.929Z,27.8
2017-09-05T17:12:03.524Z,27.8
2017-09-05T17:17:13.532Z,28.0
2017-09-05T17:22:03.408Z,28.4
2017-09-05T17:27:03.652Z,27.6
2017-09-05T17:32:13.561Z,26.4
2017-09-05T17:37:03.545Z,26.4
2017-09-05T17:42:02.966Z,25.9
2017-09-05T17:47:39.078Z,25.6
2017-09-05T17:52:02.830Z,25.5
2017-09-05T17:57:03.378Z,25.3
2017-09-05T18:02:13.705Z,25.1
2017-09-05T18:07:03.373Z,24.8
2017-09-05T18:12:02.968Z,24.5
2017-09-05T18:17:13.920Z,24.4
2017-09-05T18:22:02.906Z,24.4
2017-09-05T18:27:03.247Z,24.3
2017-09-05T18:32:04.314Z,24.3
2017-09-05T18:37:03.182Z,24.1
2017-09-05T18:42:03.331Z,24.0
2017-09-05T18:47:03.891Z,24.0
2017-09-05T18:52:03.099Z,23.9
2017-09-05T18:57:03.281Z,23.8
2017-09-05T19:02:03.321Z,23.3
2017-09-05T19:07:03.400Z,23.2
2017-09-05T19:12:02.765Z,23.2
2017-09-05T19:17:03.249Z,23.0
2017-09-05T19:22:03.613Z,22.9
2017-09-05T19:27:02.824Z,22.8
2017-09-05T19:32:03.223Z,22.7
2017-09-05T19:37:03.702Z,22.6
2017-09-05T19:42:02.951Z,22.4
2017-09-05T19:47:03.296Z,22.4
2017-09-05T19:52:02.729Z,22.3
2017-09-05T19:57:03.128Z,22.3
2017-09-05T20:02:03.330Z,22.3
2017-09-05T20:07:02.902Z,22.2
2017-09-05T20:12:03.275Z,22.2
2017-09-05T20:17:03.777Z,22.1
2017-09-05T20:22:03.118Z,22.1
2017-09-05T20:27:03.388Z,22.0
2017-09-05T20:32:02.802Z,21.9
2017-09-05T20:37:03.140Z,21.8
2017-09-05T20:42:03.384Z,21.8
2017-09-05T20:47:03.102Z,21.5
2017-09-05T20:52:03.137Z,21.5
2017-09-05T20:57:03.426Z,21.4
2017-09-05T21:02:02.934Z,21.2
2017-09-05T21:07:03.307Z,21.2
2017-09-05T21:12:02.841Z,21.1
2017-09-05T21:17:03.200Z,21.1
2017-09-05T21:22:03.526Z,21.0
2017-09-05T21:27:02.854Z,21.0
2017-09-05T21:32:03.178Z,20.9
2017-09-05T21:37:03.549Z,20.8
2017-09-05T21:42:02.866Z,20.8
2017-09-05T21:47:03.335Z,20.5
2017-09-05T21:52:03.396Z,20.5
2017-09-05T21:57:02.693Z,20.4
2017-09-05T22:02:03.191Z,20.3
2017-09-05T22:07:02.772Z,20.3
2017-09-05T22:12:03.283Z,20.4
2017-09-05T22:22:03.277Z,20.5
2017-09-05T22:27:03.031Z,20.4
2017-09-05T22:32:03.045Z,20.4
2017-09-05T22:37:02.797Z,20.4
2017-09-05T22:42:02.832Z,20.3
2017-09-05T22:47:02.701Z,20.4
2017-09-05T22:52:03.245Z,20.3
2017-09-05T22:57:03.144Z,20.3
2017-09-05T23:02:03.112Z,20.0
2017-09-05T23:07:03.143Z,19.7
2017-09-05T23:12:03.255Z,19.7
2017-09-05T23:17:03.477Z,19.3
2017-09-05T23:22:03.130Z,19.2
2017-09-05T23:27:02.907Z,19.0
2017-09-05T23:32:03.051Z,19.1
2017-09-05T23:37:02.736Z,19.0
2017-09-05T23:42:03.269Z,19.1
2017-09-05T23:47:03.385Z,19.1
2017-09-05T23:52:03.574Z,19.3
2017-09-05T23:57:02.638Z,19.3
